Burdett, New York
Current Conditions -  °F | °C
As of 12:53 PM on Thursday 27 Nov 2014 (Local Time) from KELM Reporting Station
Scattered Clouds Scattered Clouds  
Wind Chill: 29°   Ceiling: Unl
Heat Index: 33°   Visibility: 10mi
Dew Point: 22°   Wind: 5mph
Humidity: 64%   Direction: 330°NNW
Pressure: 30.01"   Gusts: NA
Location:  42.42°N, 76.85°W
Report Text: KELM 271753Z 33004KT 10SM FEW030 SCT039 01/M06 A3001 RMK AO2 SLP170 60001 T00061056 10006 21011 55006
Loading
Personal Weather Stations






























Interactive Weather Map New forecast layout! Learn more

10-Day Weather Forecast

Advertisements
Track Severe Weather on mobile